Time;durP1;ratioP1;P1;durP2;ratioP2;P2;SDS_P1;SDS_P2;PMS_P1;PMS_P2;Temp;Humidity;BMP_temperature;BMP_pressure;BME280_temperature;BME280_humidity;BME280_pressure;Samples;Min_cycle;Max_cycle;Signal;HPM_P1;HPM_P2
2022/11/25 00:00:50;;;;;;;6.43;0.50;;;7.80;99.90;;;;;;4869288;29;20116;-82
2022/11/25 00:03:16;;;;;;;6.30;0.38;;;7.80;99.90;;;;;;4874089;29;20025;-80
2022/11/25 00:05:42;;;;;;;5.82;0.40;;;7.80;99.90;;;;;;4882092;29;20088;-82
2022/11/25 00:08:08;;;;;;;3.70;0.32;;;7.80;99.90;;;;;;4870638;29;20131;-80
2022/11/25 00:10:33;;;;;;;2.92;0.40;;;7.80;99.90;;;;;;4885343;29;20068;-82
2022/11/25 00:12:59;;;;;;;5.55;0.50;;;7.80;99.90;;;;;;4886768;29;20134;-81
2022/11/25 00:15:25;;;;;;;4.53;0.30;;;7.90;99.90;;;;;;4872617;29;20035;-80
2022/11/25 00:17:51;;;;;;;6.72;0.40;;;7.90;99.90;;;;;;4870786;29;20025;-81
2022/11/25 00:20:19;;;;;;;2.97;0.70;;;7.90;99.90;;;;;;4871176;29;20496;-84
2022/11/25 00:22:44;;;;;;;3.55;0.30;;;7.80;99.90;;;;;;4868798;29;20056;-84
2022/11/25 00:25:10;;;;;;;6.68;0.50;;;7.80;99.90;;;;;;4873192;29;20436;-83
2022/11/25 00:27:36;;;;;;;5.72;0.40;;;7.80;99.90;;;;;;4885327;29;20033;-83
2022/11/25 00:30:02;;;;;;;5.55;0.45;;;7.80;99.90;;;;;;4870518;29;20064;-84
2022/11/25 00:32:28;;;;;;;6.65;0.40;;;7.80;99.90;;;;;;4871609;29;20477;-85
2022/11/25 00:34:53;;;;;;;4.03;0.40;;;7.80;99.90;;;;;;4870041;29;20089;-85
2022/11/25 00:37:19;;;;;;;6.80;0.50;;;7.80;99.90;;;;;;4885497;29;20093;-79
2022/11/25 00:39:45;;;;;;;6.00;0.52;;;7.80;99.90;;;;;;4868972;29;20059;-83
2022/11/25 00:44:55;;;;;;;6.43;0.55;;;7.80;99.90;;;;;;4870535;29;20121;-82
2022/11/25 00:47:21;;;;;;;5.57;0.40;;;7.80;99.90;;;;;;4871521;29;20108;-82
2022/11/25 00:49:51;;;;;;;4.68;0.40;;;7.80;99.90;;;;;;4885984;29;20025;-80
2022/11/25 00:52:20;;;;;;;4.65;0.40;;;7.80;99.90;;;;;;4886117;29;20145;-85
2022/11/25 00:54:47;;;;;;;1.77;0.38;;;7.80;99.90;;;;;;4885747;29;20657;-81
2022/11/25 00:57:14;;;;;;;3.60;0.20;;;7.80;99.90;;;;;;4877093;29;20057;-85
2022/11/25 00:59:40;;;;;;;3.25;0.40;;;7.80;99.90;;;;;;4867005;29;20296;-83
2022/11/25 01:02:06;;;;;;;3.15;0.30;;;7.80;99.90;;;;;;4886257;29;20033;-82
2022/11/25 01:04:32;;;;;;;2.78;0.50;;;7.80;99.90;;;;;;4870663;29;20025;-85
2022/11/25 01:06:59;;;;;;;3.60;0.30;;;7.80;99.90;;;;;;4869124;29;20032;-85
2022/11/25 01:09:25;;;;;;;2.75;0.30;;;7.90;99.90;;;;;;4869859;29;20025;-81
2022/11/25 01:11:51;;;;;;;5.10;0.63;;;7.80;99.90;;;;;;4872582;29;20037;-86
2022/11/25 01:14:18;;;;;;;4.22;0.30;;;8.00;99.90;;;;;;4885578;29;20733;-83
2022/11/25 01:16:46;;;;;;;4.20;0.40;;;7.90;99.90;;;;;;4872045;29;20029;-85
2022/11/25 01:19:12;;;;;;;5.57;0.43;;;7.90;99.90;;;;;;4870512;29;20128;-84
2022/11/25 01:21:38;;;;;;;3.00;0.30;;;7.90;99.90;;;;;;4854177;29;20116;-81
2022/11/25 01:24:04;;;;;;;3.10;0.30;;;7.90;99.90;;;;;;4886561;29;20124;-81
2022/11/25 01:26:33;;;;;;;5.03;0.32;;;7.90;99.90;;;;;;4871180;29;20025;-84
2022/11/25 01:29:02;;;;;;;7.15;0.40;;;7.90;99.90;;;;;;4871658;29;20514;-86
2022/11/25 01:31:34;;;;;;;3.67;0.50;;;7.90;99.90;;;;;;4870645;29;20066;-85
2022/11/25 01:34:05;;;;;;;3.45;0.30;;;7.90;99.90;;;;;;4871757;29;20497;-80
2022/11/25 01:36:32;;;;;;;3.30;0.30;;;7.90;99.90;;;;;;4867379;29;20041;-81
2022/11/25 01:38:59;;;;;;;5.65;0.40;;;7.90;99.90;;;;;;4876533;29;20464;-85
2022/11/25 01:41:27;;;;;;;4.88;0.50;;;7.90;99.90;;;;;;4890935;29;20072;-82
2022/11/25 01:44:14;;;;;;;5.53;0.30;;;7.90;99.90;;;;;;4892699;29;20497;-82
2022/11/25 01:47:04;;;;;;;3.63;0.30;;;7.90;99.90;;;;;;4906996;29;20037;-83
2022/11/25 01:49:52;;;;;;;4.80;0.40;;;7.90;99.90;;;;;;4907764;29;20041;-84
2022/11/25 01:52:28;;;;;;;5.20;0.95;;;7.90;99.90;;;;;;4907163;29;20032;-82
2022/11/25 01:55:09;;;;;;;4.00;0.40;;;7.90;99.90;;;;;;4894119;29;20386;-82
2022/11/25 01:57:42;;;;;;;1.80;0.20;;;7.90;99.90;;;;;;4890497;29;20027;-80
2022/11/25 02:00:09;;;;;;;2.45;0.30;;;8.00;99.90;;;;;;4906400;29;20115;-84
2022/11/25 02:02:45;;;;;;;4.13;0.52;;;7.90;99.90;;;;;;4889416;29;20068;-85
2022/11/25 02:05:15;;;;;;;4.07;0.50;;;8.00;99.90;;;;;;4894271;29;20036;-83
2022/11/25 02:07:42;;;;;;;5.90;0.40;;;7.90;99.90;;;;;;4890106;29;20032;-85
2022/11/25 02:10:13;;;;;;;5.43;0.65;;;7.90;99.90;;;;;;4890874;29;20059;-81
2022/11/25 02:12:44;;;;;;;4.50;0.50;;;8.00;99.90;;;;;;4902143;29;20024;-82
2022/11/25 02:15:11;;;;;;;6.30;0.75;;;8.00;99.90;;;;;;4875021;29;20036;-83
2022/11/25 02:17:37;;;;;;;3.67;0.45;;;8.00;99.90;;;;;;4890841;29;20047;-87
2022/11/25 02:20:05;;;;;;;4.35;0.40;;;8.00;99.90;;;;;;4875656;29;20040;-80
2022/11/25 02:22:36;;;;;;;3.47;0.40;;;8.00;99.90;;;;;;4889377;29;20096;-82
2022/11/25 02:25:12;;;;;;;;;;;8.00;99.90;;;;;;4870075;29;20480;-81
2022/11/25 02:27:39;;;;;;;2.30;0.85;;;8.00;99.90;;;;;;4907526;29;20059;-81
2022/11/25 02:30:06;;;;;;;3.70;0.50;;;8.00;99.90;;;;;;4892645;29;20033;-83
2022/11/25 02:32:31;;;;;;;7.70;0.50;;;8.00;99.90;;;;;;4894089;29;20032;-81
2022/11/25 02:34:59;;;;;;;4.80;0.35;;;8.00;99.90;;;;;;4890067;29;20036;-83
2022/11/25 02:37:25;;;;;;;7.50;0.50;;;8.00;99.90;;;;;;4875087;29;20047;-81
2022/11/25 02:39:52;;;;;;;8.15;0.63;;;8.10;99.90;;;;;;4877706;29;20088;-81
2022/11/25 02:42:20;;;;;;;8.00;0.60;;;8.10;99.90;;;;;;4872792;29;20108;-81
2022/11/25 02:44:47;;;;;;;3.50;0.35;;;8.10;99.90;;;;;;4898230;29;20485;-85
2022/11/25 02:47:13;;;;;;;2.30;0.40;;;8.10;99.90;;;;;;4874963;29;20089;-86
2022/11/25 02:49:39;;;;;;;4.55;0.68;;;8.10;99.90;;;;;;4905427;29;20048;-85
2022/11/25 02:52:04;;;;;;;5.25;0.60;;;8.10;99.90;;;;;;4892164;29;20032;-85
2022/11/25 02:54:30;;;;;;;5.45;0.50;;;8.10;99.90;;;;;;4891342;29;20041;-85
2022/11/25 02:56:56;;;;;;;8.60;0.50;;;8.10;99.90;;;;;;4873771;29;20120;-84
2022/11/25 02:59:21;;;;;;;5.88;0.77;;;8.10;99.90;;;;;;4887414;29;20060;-83
2022/11/25 03:01:47;;;;;;;3.88;0.35;;;8.10;99.90;;;;;;4904923;29;20505;-81
2022/11/25 03:04:13;;;;;;;4.90;0.40;;;8.10;99.90;;;;;;4892513;29;20041;-80
2022/11/25 03:06:38;;;;;;;2.97;0.40;;;8.10;99.90;;;;;;4900062;29;20055;-83
2022/11/25 03:09:06;;;;;;;2.97;0.30;;;8.10;99.90;;;;;;4890951;29;20028;-84
2022/11/25 03:14:21;;;;;;;6.18;0.50;;;8.20;99.90;;;;;;4890923;29;20063;-83
2022/11/25 03:16:46;;;;;;;4.07;0.47;;;8.20;99.90;;;;;;4905527;29;20060;-85
2022/11/25 03:19:12;;;;;;;5.28;0.60;;;8.20;99.90;;;;;;4897530;29;20043;-83
2022/11/25 03:21:38;;;;;;;4.57;0.50;;;8.20;99.90;;;;;;4875805;29;20069;-84
2022/11/25 03:24:04;;;;;;;4.03;0.30;;;8.20;99.90;;;;;;4890076;29;20092;-82
2022/11/25 03:26:30;;;;;;;2.95;0.28;;;8.20;99.90;;;;;;4907550;29;20025;-84
2022/11/25 03:28:55;;;;;;;5.15;0.47;;;8.20;99.90;;;;;;4873795;29;20545;-85
2022/11/25 03:31:21;;;;;;;5.25;0.30;;;8.20;99.90;;;;;;4872586;29;20052;-80
2022/11/25 03:33:47;;;;;;;3.25;0.50;;;8.20;99.90;;;;;;4890724;29;20043;-81
2022/11/25 03:36:13;;;;;;;3.22;0.50;;;8.20;99.90;;;;;;4871769;29;20485;-85
2022/11/25 03:38:38;;;;;;;2.45;0.45;;;8.10;99.90;;;;;;4888837;29;20598;-81
2022/11/25 03:41:04;;;;;;;5.95;0.30;;;8.20;99.90;;;;;;4906125;29;20066;-80
2022/11/25 03:43:31;;;;;;;3.72;0.40;;;8.10;99.90;;;;;;4889886;29;20028;-84
2022/11/25 03:45:57;;;;;;;5.05;0.20;;;8.20;99.90;;;;;;4893099;29;20035;-82
2022/11/25 03:48:23;;;;;;;2.67;0.30;;;8.10;99.90;;;;;;4888463;29;20028;-84
2022/11/25 03:50:48;;;;;;;4.20;0.35;;;8.10;99.90;;;;;;4890447;29;20029;-82
2022/11/25 03:53:14;;;;;;;2.67;0.30;;;8.10;99.90;;;;;;4875250;29;20028;-82
2022/11/25 03:55:40;;;;;;;4.35;0.30;;;8.10;99.90;;;;;;4898978;29;20028;-83
2022/11/25 03:58:05;;;;;;;4.53;0.30;;;8.10;99.90;;;;;;4876475;29;20025;-83
2022/11/25 04:00:32;;;;;;;2.72;0.30;;;8.10;99.90;;;;;;4904585;29;20032;-83
2022/11/25 04:03:01;;;;;;;;;;;8.00;99.90;;;;;;4907056;29;20028;-82
2022/11/25 04:05:30;;;;;;;5.30;0.30;;;8.10;99.90;;;;;;4890131;29;19975;-83
2022/11/25 04:07:59;;;;;;;2.97;0.30;;;8.10;99.90;;;;;;4888699;29;20025;-83
2022/11/25 04:10:25;;;;;;;2.13;0.20;;;8.10;99.90;;;;;;4893046;29;20029;-83
2022/11/25 04:12:53;;;;;;;1.30;0.20;;;8.10;99.90;;;;;;4904323;29;20088;-79
2022/11/25 04:15:23;;;;;;;4.13;0.25;;;8.10;99.90;;;;;;4872946;29;20037;-80
2022/11/25 04:17:52;;;;;;;5.15;0.70;;;8.10;99.90;;;;;;4875152;29;20108;-84
2022/11/25 04:20:18;;;;;;;2.75;0.20;;;8.10;99.90;;;;;;4888116;29;20115;-81
2022/11/25 04:22:50;;;;;;;2.15;0.30;;;8.10;99.90;;;;;;4888775;29;20060;-79
2022/11/25 04:25:17;;;;;;;2.42;0.40;;;8.10;99.90;;;;;;4905263;29;20088;-79
2022/11/25 04:27:43;;;;;;;2.30;0.20;;;8.10;99.90;;;;;;4900600;29;20029;-81
2022/11/25 04:30:10;;;;;;;2.60;0.30;;;8.10;99.90;;;;;;4899596;29;20393;-85
2022/11/25 04:32:38;;;;;;;4.90;0.50;;;8.10;99.90;;;;;;4873862;29;20024;-83
2022/11/25 04:35:06;;;;;;;2.05;0.30;;;8.10;99.90;;;;;;4898582;29;20040;-84
2022/11/25 04:37:33;;;;;;;3.00;0.30;;;8.00;99.90;;;;;;4897680;29;20071;-82
2022/11/25 04:39:58;;;;;;;2.92;0.40;;;8.10;99.90;;;;;;4886875;29;20064;-84
2022/11/25 04:42:30;;;;;;;4.40;0.70;;;8.00;99.90;;;;;;4876463;29;20052;-83
2022/11/25 04:44:58;;;;;;;3.15;0.35;;;8.10;99.90;;;;;;4890990;29;20119;-84
2022/11/25 04:47:25;;;;;;;2.97;0.30;;;8.00;99.90;;;;;;4903322;29;20030;-79
2022/11/25 04:49:50;;;;;;;4.78;0.85;;;8.00;99.90;;;;;;4874805;29;20363;-83
2022/11/25 04:52:17;;;;;;;3.05;0.35;;;8.00;99.90;;;;;;4890167;29;20028;-80
2022/11/25 04:54:42;;;;;;;2.72;0.30;;;8.00;99.90;;;;;;4889526;29;20077;-83
2022/11/25 04:57:13;;;;;;;2.25;0.30;;;8.00;99.90;;;;;;4901298;29;20482;-78
2022/11/25 04:59:42;;;;;;;5.50;0.50;;;8.00;99.90;;;;;;4897374;29;20037;-81
2022/11/25 05:02:14;;;;;;;3.47;0.50;;;8.00;99.90;;;;;;4876261;29;20025;-82
2022/11/25 05:04:45;;;;;;;2.85;0.50;;;7.90;99.90;;;;;;4885596;29;20040;-81
2022/11/25 05:07:13;;;;;;;4.38;0.60;;;7.90;99.90;;;;;;4893581;29;20137;-83
2022/11/25 05:09:39;;;;;;;4.32;0.40;;;8.00;99.90;;;;;;4877172;29;20485;-84
2022/11/25 05:12:16;;;;;;;4.68;0.40;;;7.90;99.90;;;;;;4881243;29;20039;-81
2022/11/25 05:14:42;;;;;;;3.13;0.43;;;7.90;99.90;;;;;;4906611;29;20508;-82
2022/11/25 05:17:13;;;;;;;3.35;0.40;;;7.90;99.90;;;;;;4875730;29;20064;-80
2022/11/25 05:19:39;;;;;;;2.58;0.40;;;8.00;99.90;;;;;;4901642;29;20165;-84
2022/11/25 05:22:05;;;;;;;2.85;0.40;;;7.90;99.90;;;;;;4893781;29;20116;-81
2022/11/25 05:24:31;;;;;;;3.13;0.40;;;8.00;99.90;;;;;;4903369;29;20028;-80
2022/11/25 05:26:56;;;;;;;5.78;0.50;;;7.90;99.90;;;;;;4907762;29;20035;-81
2022/11/25 05:29:22;;;;;;;1.73;0.30;;;7.90;99.90;;;;;;4892378;29;20025;-82
2022/11/25 05:31:48;;;;;;;8.15;1.05;;;7.90;99.90;;;;;;4891688;29;20064;-83
2022/11/25 05:34:14;;;;;;;3.28;0.70;;;8.00;99.90;;;;;;4902442;29;20116;-84
2022/11/25 05:36:42;;;;;;;2.22;0.32;;;8.00;99.90;;;;;;4895301;29;20041;-82
2022/11/25 05:39:08;;;;;;;4.40;0.40;;;8.00;99.90;;;;;;4909041;29;20043;-81
2022/11/25 05:42:03;;;;;;;2.08;0.30;;;8.00;99.90;;;;;;4890091;29;20425;-82
2022/11/25 05:44:29;;;;;;;2.85;0.30;;;8.00;99.90;;;;;;4901252;29;20190;-79
2022/11/25 05:46:55;;;;;;;4.20;0.57;;;8.00;99.90;;;;;;4880123;29;20044;-79
2022/11/25 05:49:21;;;;;;;3.38;0.20;;;8.00;99.90;;;;;;4891159;29;20056;-81
2022/11/25 05:51:48;;;;;;;2.58;0.30;;;8.00;99.90;;;;;;4890298;29;20088;-81
2022/11/25 05:54:14;;;;;;;2.47;0.30;;;8.10;99.90;;;;;;4875121;29;20044;-83
2022/11/25 05:56:40;;;;;;;4.05;0.30;;;8.10;99.90;;;;;;4888811;29;20037;-81
2022/11/25 05:59:24;;;;;;;1.88;0.30;;;8.10;99.90;;;;;;4893201;29;20100;-81
2022/11/25 06:02:03;;;;;;;2.97;0.30;;;8.10;99.90;;;;;;4905823;29;20493;-81
2022/11/25 06:04:30;;;;;;;2.92;0.25;;;8.10;99.90;;;;;;4891233;29;20388;-83
2022/11/25 06:06:55;;;;;;;1.38;0.20;;;8.10;99.90;;;;;;4894779;29;20033;-83
2022/11/25 06:09:21;;;;;;;1.90;0.25;;;8.10;99.90;;;;;;4906358;29;20025;-85
2022/11/25 06:11:47;;;;;;;1.73;0.20;;;8.10;99.90;;;;;;4891665;29;20024;-80
2022/11/25 06:14:16;;;;;;;3.35;0.30;;;8.20;99.90;;;;;;4889258;29;20489;-84
2022/11/25 06:16:42;;;;;;;4.18;0.30;;;8.10;99.90;;;;;;4905009;29;20036;-81
2022/11/25 06:19:28;;;;;;;1.75;0.20;;;8.10;99.90;;;;;;4891016;29;20048;-84
2022/11/25 06:21:54;;;;;;;2.20;0.20;;;8.10;99.90;;;;;;4892856;29;20039;-82
2022/11/25 06:24:19;;;;;;;1.55;0.22;;;8.10;99.90;;;;;;4888370;29;20035;-82
2022/11/25 06:26:49;;;;;;;0.80;0.20;;;8.10;99.90;;;;;;4889099;29;20031;-81
2022/11/25 06:29:14;;;;;;;5.93;0.55;;;8.20;99.90;;;;;;4888975;29;20040;-82
2022/11/25 06:31:44;;;;;;;2.85;0.15;;;8.10;99.90;;;;;;4899323;29;20092;-83
2022/11/25 06:34:33;;;;;;;1.52;0.30;;;8.10;99.90;;;;;;4894219;29;20091;-80
2022/11/25 06:36:59;;;;;;;1.80;0.10;;;8.00;99.90;;;;;;4874510;29;20096;-80
2022/11/25 06:39:25;;;;;;;3.05;0.20;;;7.90;99.90;;;;;;4905607;29;20029;-81
2022/11/25 06:41:50;;;;;;;1.30;0.10;;;7.90;99.90;;;;;;4905354;29;20437;-82
2022/11/25 06:44:16;;;;;;;2.00;0.20;;;7.80;99.90;;;;;;4907341;29;20033;-80
2022/11/25 06:46:42;;;;;;;3.45;0.20;;;7.80;99.90;;;;;;4875586;29;20084;-83
2022/11/25 06:49:07;;;;;;;1.45;0.10;;;7.90;99.90;;;;;;4889436;29;20231;-81
2022/11/25 06:51:33;;;;;;;2.03;0.20;;;7.80;99.90;;;;;;4907049;29;20473;-83
2022/11/25 06:53:59;;;;;;;1.35;0.10;;;7.70;99.90;;;;;;4903900;29;20048;-79
2022/11/25 06:56:26;;;;;;;4.82;0.40;;;7.70;99.90;;;;;;4885868;29;20025;-80
2022/11/25 06:58:53;;;;;;;1.58;0.30;;;7.60;99.90;;;;;;4877742;29;20036;-80
2022/11/25 07:01:21;;;;;;;2.63;0.20;;;7.70;99.90;;;;;;4891885;29;20080;-80
2022/11/25 07:03:50;;;;;;;1.63;0.20;;;7.50;99.90;;;;;;4891647;29;20023;-80
2022/11/25 07:06:17;;;;;;;1.95;0.10;;;7.50;99.90;;;;;;4888089;29;20115;-82
2022/11/25 07:08:43;;;;;;;1.52;0.20;;;7.50;99.90;;;;;;4906899;29;20049;-79
2022/11/25 07:11:17;;;;;;;2.33;0.20;;;7.40;99.90;;;;;;4898875;29;20032;-80
2022/11/25 07:13:44;;;;;;;1.98;0.10;;;7.40;99.90;;;;;;4890870;29;20043;-79
2022/11/25 07:16:13;;;;;;;1.27;0.10;;;7.40;99.90;;;;;;4893000;29;20195;-80
2022/11/25 07:18:40;;;;;;;0.93;0.10;;;7.40;99.90;;;;;;4890539;29;20040;-82
2022/11/25 07:21:14;;;;;;;2.55;0.17;;;7.30;99.90;;;;;;4888621;29;20665;-82
2022/11/25 07:23:41;;;;;;;0.95;0.10;;;7.30;99.90;;;;;;4903687;29;20366;-79
2022/11/25 07:26:12;;;;;;;2.13;0.20;;;7.40;99.90;;;;;;4890303;29;20036;-79
2022/11/25 07:28:38;;;;;;;1.75;0.13;;;7.40;99.90;;;;;;4890997;29;20115;-82
2022/11/25 07:31:08;;;;;;;2.22;0.17;;;7.40;99.90;;;;;;4881074;29;20064;-81
2022/11/25 07:33:35;;;;;;;1.48;0.20;;;7.40;99.90;;;;;;4867597;29;20413;-82
2022/11/25 07:36:05;;;;;;;2.38;0.20;;;7.40;99.90;;;;;;4886740;29;20056;-82
2022/11/25 07:38:32;;;;;;;2.45;0.30;;;7.30;99.90;;;;;;4887284;29;20043;-79
2022/11/25 07:41:10;;;;;;;2.30;0.30;;;7.40;99.90;;;;;;4867327;29;20401;-80
2022/11/25 07:43:36;;;;;;;1.90;0.30;;;7.30;99.90;;;;;;4885836;29;20045;-81
2022/11/25 07:46:29;;;;;;;3.40;0.43;;;7.30;99.90;;;;;;4876700;29;20036;-82
2022/11/25 07:48:59;;;;;;;1.25;0.30;;;7.30;99.90;;;;;;4868182;29;20418;-82
2022/11/25 07:51:28;;;;;;;1.70;0.40;;;7.30;99.90;;;;;;4886329;29;20045;-81
2022/11/25 07:53:55;;;;;;;1.75;0.30;;;7.20;99.90;;;;;;4885374;29;20063;-82
2022/11/25 07:56:21;;;;;;;2.05;0.30;;;7.20;99.90;;;;;;4884926;29;20049;-81
2022/11/25 07:58:47;;;;;;;1.13;0.30;;;7.30;99.90;;;;;;4882124;29;20401;-80
2022/11/25 08:01:15;;;;;;;1.60;0.30;;;7.20;99.90;;;;;;4861787;29;20043;-81
2022/11/25 08:03:42;;;;;;;2.72;0.47;;;7.40;99.90;;;;;;4884723;29;20947;-81
2022/11/25 08:06:14;;;;;;;2.03;0.50;;;7.30;99.90;;;;;;4885382;29;20493;-82
2022/11/25 08:08:41;;;;;;;2.72;0.65;;;7.30;99.90;;;;;;4871110;29;20089;-82
2022/11/25 08:11:15;;;;;;;3.47;0.40;;;7.30;99.90;;;;;;4884255;29;20048;-82
2022/11/25 08:13:41;;;;;;;2.83;0.40;;;7.30;99.90;;;;;;4869245;29;20040;-82
2022/11/25 08:16:07;;;;;;;2.00;0.40;;;7.40;99.90;;;;;;4869719;29;20045;-82
2022/11/25 08:18:33;;;;;;;2.30;0.40;;;7.40;99.90;;;;;;4884268;29;20057;-82
2022/11/25 08:21:03;;;;;;;1.02;0.28;;;7.40;99.90;;;;;;4886372;29;20095;-83
2022/11/25 08:23:30;;;;;;;1.50;0.30;;;7.40;99.90;;;;;;4884695;29;20032;-83
2022/11/25 08:25:56;;;;;;;1.65;0.35;;;7.40;99.90;;;;;;4886402;29;20079;-81
2022/11/25 08:28:23;;;;;;;5.30;0.32;;;7.40;99.90;;;;;;4886786;29;20028;-84
2022/11/25 08:30:49;;;;;;;2.65;0.40;;;7.50;99.90;;;;;;4871809;29;20104;-83
2022/11/25 08:33:14;;;;;;;1.83;0.30;;;7.60;99.90;;;;;;4871153;29;20033;-83
2022/11/25 08:35:40;;;;;;;3.22;0.30;;;7.60;99.90;;;;;;4870202;29;20041;-85
2022/11/25 08:38:08;;;;;;;0.90;0.20;;;7.70;99.90;;;;;;4885549;29;20047;-82
2022/11/25 08:40:35;;;;;;;1.58;0.20;;;7.80;99.90;;;;;;4871839;29;21145;-84
2022/11/25 08:43:01;;;;;;;2.60;0.25;;;7.80;99.90;;;;;;4885230;29;20037;-84
2022/11/25 08:45:27;;;;;;;2.30;0.30;;;7.80;99.90;;;;;;4882932;29;20035;-82
2022/11/25 08:47:53;;;;;;;2.72;0.30;;;8.00;99.90;;;;;;4871581;29;20033;-85
2022/11/25 08:50:19;;;;;;;2.03;0.30;;;8.00;99.90;;;;;;4870676;29;20960;-85
2022/11/25 08:52:45;;;;;;;2.50;0.35;;;8.00;99.90;;;;;;4870669;29;20052;-83
2022/11/25 08:55:10;;;;;;;0.82;0.30;;;8.00;99.90;;;;;;4869667;29;20080;-82
2022/11/25 08:57:36;;;;;;;2.20;0.30;;;8.10;99.90;;;;;;4885980;29;20041;-86
2022/11/25 09:00:04;;;;;;;1.95;0.32;;;8.20;99.90;;;;;;4872319;29;20043;-83
2022/11/25 09:02:30;;;;;;;2.08;0.30;;;8.20;99.90;;;;;;4885635;29;20044;-82
2022/11/25 09:04:55;;;;;;;1.33;0.30;;;8.20;99.90;;;;;;4870333;29;20383;-85
2022/11/25 09:07:22;;;;;;;2.00;0.40;;;8.30;99.90;;;;;;4885324;29;20052;-83
2022/11/25 09:09:48;;;;;;;3.05;0.30;;;8.30;99.90;;;;;;4872256;29;20041;-84
2022/11/25 09:12:14;;;;;;;1.30;0.30;;;8.40;99.90;;;;;;4886175;29;20033;-85
2022/11/25 09:14:40;;;;;;;1.20;0.30;;;8.40;99.90;;;;;;4876441;29;20045;-84
2022/11/25 09:17:10;;;;;;;2.30;0.50;;;8.40;99.90;;;;;;4884133;29;20070;-82
2022/11/25 09:19:35;;;;;;;;;;;8.50;99.90;;;;;;4887194;29;20442;-89
2022/11/25 09:22:01;;;;;;;5.43;0.50;;;8.50;99.90;;;;;;4902168;29;19916;-89
2022/11/25 09:24:27;;;;;;;2.92;0.40;;;8.60;99.90;;;;;;4889088;29;20032;-88
2022/11/25 09:26:53;;;;;;;3.20;0.40;;;8.70;99.90;;;;;;4904314;29;20040;-88
2022/11/25 09:29:19;;;;;;;3.05;0.38;;;8.70;99.90;;;;;;4890426;29;20324;-85
2022/11/25 09:31:45;;;;;;;1.70;0.40;;;8.80;99.90;;;;;;4874523;29;20394;-85
2022/11/25 09:34:11;;;;;;;2.83;0.40;;;8.80;99.90;;;;;;4899271;29;20036;-85
2022/11/25 09:36:36;;;;;;;5.43;0.80;;;8.90;99.90;;;;;;4888990;29;20072;-88
2022/11/25 09:39:03;;;;;;;4.38;0.50;;;9.00;99.90;;;;;;4887562;29;20039;-88
2022/11/25 09:48:12;;;;;;;3.97;0.57;;;9.10;99.90;;;;;;4888110;29;20508;-88
2022/11/25 09:51:12;;;;;;;2.33;0.40;;;9.20;99.90;;;;;;4889126;29;20032;-88
2022/11/25 09:54:05;;;;;;;4.10;0.60;;;9.30;99.90;;;;;;4885756;29;20048;-84
2022/11/25 09:56:36;;;;;;;3.60;0.50;;;9.30;99.90;;;;;;4889662;29;20051;-87
2022/11/25 09:59:43;;;;;;;4.03;0.60;;;9.40;99.90;;;;;;4897324;29;20117;-83
2022/11/25 10:02:53;;;;;;;3.03;0.40;;;9.40;99.90;;;;;;4893761;29;20053;-84
2022/11/25 10:05:26;;;;;;;2.45;0.40;;;9.50;99.90;;;;;;4887223;29;20120;-85
2022/11/25 10:07:56;;;;;;;5.10;0.40;;;9.60;99.90;;;;;;4891770;29;20116;-86
2022/11/25 10:10:48;;;;;;;2.92;0.30;;;9.70;99.90;;;;;;4890227;29;20238;-87
2022/11/25 10:13:31;;;;;;;3.70;0.35;;;9.70;99.90;;;;;;4892342;29;20029;-81
2022/11/25 10:16:00;;;;;;;4.60;0.50;;;9.80;99.90;;;;;;4893026;29;20668;-85
2022/11/25 10:18:55;;;;;;;3.17;0.50;;;9.80;99.90;;;;;;4905666;29;20037;-88
2022/11/25 10:21:20;;;;;;;4.28;0.60;;;9.90;99.90;;;;;;4890242;29;20481;-82
2022/11/25 10:23:46;;;;;;;6.95;1.35;;;9.90;99.90;;;;;;4898678;29;20048;-88
2022/11/25 10:26:15;;;;;;;7.57;1.77;;;9.90;99.90;;;;;;4906095;29;20028;-88
2022/11/25 10:28:52;;;;;;;4.30;0.70;;;9.90;99.90;;;;;;4892317;29;20059;-86
2022/11/25 10:31:19;;;;;;;7.85;1.27;;;10.00;99.90;;;;;;4890045;29;20700;-88
2022/11/25 10:33:56;;;;;;;5.80;0.90;;;10.10;99.90;;;;;;4893744;29;20308;-87
2022/11/25 10:36:38;;;;;;;7.60;1.23;;;10.20;99.90;;;;;;4884009;29;20040;-83
2022/11/25 10:39:15;;;;;;;5.35;0.90;;;10.30;99.90;;;;;;4892271;29;20032;-86
2022/11/25 10:42:22;;;;;;;7.22;1.63;;;10.20;99.90;;;;;;4891139;29;20076;-86
2022/11/25 10:44:48;;;;;;;4.82;1.00;;;10.10;99.90;;;;;;4875618;29;20042;-82
2022/11/25 10:47:34;;;;;;;5.90;0.80;;;10.20;99.90;;;;;;4873215;29;20466;-87
2022/11/25 10:50:18;;;;;;;6.47;1.08;;;10.20;99.90;;;;;;4905047;29;20036;-85
2022/11/25 10:52:56;;;;;;;4.10;0.70;;;10.30;99.90;;;;;;4873079;29;20033;-89
2022/11/25 10:55:25;;;;;;;5.57;0.70;;;10.40;99.90;;;;;;4903374;29;20048;-87
2022/11/25 10:57:52;;;;;;;3.33;0.70;;;10.40;99.90;;;;;;4887684;29;20111;-82
2022/11/25 11:00:34;;;;;;;5.57;0.82;;;10.50;99.90;;;;;;4875173;29;20072;-85
2022/11/25 11:03:19;;;;;;;2.47;0.60;;;10.50;99.90;;;;;;4893433;29;20481;-88
2022/11/25 11:05:48;;;;;;;3.28;0.50;;;10.60;99.90;;;;;;4903418;29;20055;-85
2022/11/25 11:08:23;;;;;;;2.55;0.50;;;10.70;99.90;;;;;;4892650;29;20063;-87
2022/11/25 11:11:14;;;;;;;6.38;0.85;;;10.70;99.90;;;;;;4882229;29;20037;-83
2022/11/25 11:13:40;;;;;;;10.27;1.23;;;10.70;99.90;;;;;;4893513;29;20481;-84
2022/11/25 11:16:24;;;;;;;5.90;0.90;;;10.60;99.90;;;;;;4875780;29;20089;-85
2022/11/25 11:18:50;;;;;;;4.20;0.70;;;10.60;99.90;;;;;;4868871;29;20025;-85
2022/11/25 11:21:32;;;;;;;5.15;0.50;;;10.70;99.90;;;;;;4875235;29;20146;-88
2022/11/25 11:23:58;;;;;;;7.18;0.70;;;10.80;99.90;;;;;;4873565;29;20029;-83
2022/11/25 11:26:33;;;;;;;4.45;0.50;;;10.90;99.90;;;;;;4891033;29;20420;-87
2022/11/25 11:29:13;;;;;;;4.45;0.57;;;10.90;99.90;;;;;;4883921;29;20048;-86
2022/11/25 11:31:45;;;;;;;6.00;0.60;;;10.90;99.90;;;;;;4890154;29;20043;-84
2022/11/25 11:34:44;;;;;;;4.45;0.55;;;11.00;99.90;;;;;;4884129;29;20092;-85
2022/11/25 11:37:20;;;;;;;3.35;0.45;;;11.00;99.90;;;;;;4892933;29;20108;-88
2022/11/25 11:40:24;;;;;;;5.20;0.88;;;11.10;99.90;;;;;;4874176;29;20037;-87
2022/11/25 11:43:04;;;;;;;4.55;0.50;;;11.00;99.90;;;;;;4873031;29;20028;-83
2022/11/25 11:45:58;;;;;;;3.35;0.40;;;11.10;99.90;;;;;;4872673;29;20249;-82
2022/11/25 11:48:37;;;;;;;7.65;0.90;;;11.20;99.90;;;;;;4904398;29;20032;-81
2022/11/25 11:51:28;;;;;;;3.63;0.40;;;10.90;99.90;;;;;;4885719;29;20028;-87
2022/11/25 11:54:02;;;;;;;3.72;0.50;;;11.10;99.90;;;;;;4904388;29;20124;-84
2022/11/25 11:56:50;;;;;;;4.63;0.50;;;11.10;99.90;;;;;;4887342;29;20437;-88
2022/11/25 11:59:48;;;;;;;6.97;0.70;;;11.20;99.90;;;;;;4888568;29;20085;-87
2022/11/25 12:02:32;;;;;;;4.97;0.70;;;11.30;99.90;;;;;;4888458;29;20037;-85
2022/11/25 12:05:09;;;;;;;5.78;0.50;;;11.30;99.90;;;;;;4888992;29;20060;-91
2022/11/25 12:07:47;;;;;;;8.27;0.93;;;11.30;99.90;;;;;;4889241;29;20517;-86
2022/11/25 12:10:48;;;;;;;4.65;0.47;;;11.10;99.90;;;;;;4887014;29;20033;-85
2022/11/25 12:13:34;;;;;;;5.53;0.50;;;11.10;99.90;;;;;;4838705;29;20526;-84
2022/11/25 12:16:07;;;;;;;7.32;0.60;;;11.20;99.90;;;;;;4823065;29;20108;-84
2022/11/25 12:19:03;;;;;;;7.28;0.70;;;11.20;99.90;;;;;;4838837;29;20041;-83
2022/11/25 12:21:40;;;;;;;8.93;0.85;;;11.10;99.90;;;;;;4845698;29;20029;-85
2022/11/25 12:24:28;;;;;;;5.80;0.60;;;11.20;99.90;;;;;;4838411;29;20410;-86
2022/11/25 12:27:01;;;;;;;7.45;0.85;;;11.30;99.90;;;;;;4838207;29;20532;-83
2022/11/25 12:29:47;;;;;;;6.55;0.88;;;11.20;99.90;;;;;;4853994;29;20484;-85
2022/11/25 12:32:46;;;;;;;6.30;0.88;;;11.30;99.90;;;;;;4845631;29;20146;-85
2022/11/25 12:35:24;;;;;;;7.10;0.60;;;11.30;99.90;;;;;;4851667;29;20057;-85
2022/11/25 12:38:02;;;;;;;9.85;0.73;;;11.40;99.90;;;;;;4853720;29;20049;-88
2022/11/25 12:40:50;;;;;;;7.25;0.60;;;11.40;99.90;;;;;;4830770;29;20066;-86
2022/11/25 12:43:32;;;;;;;7.53;1.05;;;11.20;99.90;;;;;;4853804;29;20045;-84
2022/11/25 12:46:17;;;;;;;7.70;0.85;;;11.20;99.90;;;;;;4854362;29;20041;-86
2022/11/25 12:48:43;;;;;;;5.55;0.77;;;11.10;99.90;;;;;;4841981;29;20116;-89
2022/11/25 12:51:37;;;;;;;6.22;0.80;;;11.10;99.90;;;;;;4898411;29;20116;-87
2022/11/25 12:54:17;;;;;;;4.85;0.52;;;11.00;99.90;;;;;;4886231;29;20307;-84
2022/11/25 12:57:01;;;;;;;6.55;0.60;;;11.00;99.90;;;;;;4885789;29;20109;-85
2022/11/25 12:59:37;;;;;;;6.78;0.70;;;11.10;99.90;;;;;;4888298;29;20056;-88
2022/11/25 13:02:27;;;;;;;6.05;0.70;;;11.20;99.90;;;;;;4870901;29;20391;-90
2022/11/25 13:05:34;;;;;;;9.30;0.93;;;11.30;99.90;;;;;;4885483;29;20044;-86
2022/11/25 13:08:20;;;;;;;9.40;0.70;;;11.50;99.90;;;;;;4889260;29;20486;-82
2022/11/25 13:11:14;;;;;;;10.75;0.93;;;11.40;99.90;;;;;;4888713;29;20132;-87
2022/11/25 13:13:58;;;;;;;11.75;0.90;;;11.40;99.90;;;;;;4847399;29;20093;-87
2022/11/25 13:16:25;;;;;;;7.43;0.50;;;11.30;99.90;;;;;;4870303;29;20040;-85
2022/11/25 13:18:51;;;;;;;11.05;0.80;;;11.20;99.90;;;;;;4884735;29;20355;-85
2022/11/25 13:21:18;;;;;;;8.70;1.08;;;11.20;99.90;;;;;;4875601;29;20037;-83
2022/11/25 13:23:57;;;;;;;6.07;0.60;;;11.10;99.90;;;;;;4884299;29;20139;-82
2022/11/25 13:26:44;;;;;;;8.10;0.65;;;11.20;99.90;;;;;;4885270;29;20028;-82
2022/11/25 13:29:16;;;;;;;7.82;0.85;;;11.20;99.90;;;;;;4873332;29;20107;-85